createdAt,value
2018-10-06T00:00:15.132Z,91.40
2018-10-06T00:02:43.944Z,91.40
2018-10-06T00:05:12.537Z,91.50
2018-10-06T00:07:41.268Z,91.60
2018-10-06T00:10:09.879Z,91.60
2018-10-06T00:12:38.536Z,91.70
2018-10-06T00:15:07.816Z,91.90
2018-10-06T00:17:36.783Z,91.90
2018-10-06T00:20:05.541Z,92.00
2018-10-06T00:22:34.273Z,92.00
2018-10-06T00:25:02.949Z,92.10
2018-10-06T00:27:31.496Z,92.20
2018-10-06T00:30:00.059Z,92.20
2018-10-06T00:32:29.393Z,92.20
2018-10-06T00:34:57.976Z,92.30
2018-10-06T00:37:27.485Z,92.40
2018-10-06T00:39:56.020Z,92.40
2018-10-06T00:42:24.659Z,92.60
2018-10-06T00:44:53.325Z,92.90
2018-10-06T00:47:21.974Z,92.80
2018-10-06T00:49:50.610Z,92.80
2018-10-06T00:52:19.170Z,92.90
2018-10-06T00:54:47.762Z,93.00
2018-10-06T00:57:16.295Z,93.00
2018-10-06T00:59:44.883Z,93.00
2018-10-06T01:02:13.490Z,93.10
2018-10-06T01:04:42.220Z,93.20
2018-10-06T01:07:10.858Z,93.20
2018-10-06T01:09:39.495Z,93.20
2018-10-06T01:12:08.084Z,93.30
2018-10-06T01:14:36.678Z,93.30
2018-10-06T01:17:05.323Z,93.40
2018-10-06T01:19:35.679Z,93.50
2018-10-06T01:22:04.844Z,93.50
2018-10-06T01:24:33.463Z,93.90
2018-10-06T01:27:02.144Z,93.70
2018-10-06T01:29:32.875Z,93.70
2018-10-06T01:32:03.112Z,94.00
2018-10-06T01:34:31.801Z,93.90
2018-10-06T01:37:00.919Z,93.90
2018-10-06T01:39:29.768Z,93.90
2018-10-06T01:41:58.333Z,94.00
2018-10-06T01:44:26.961Z,94.00
2018-10-06T01:46:56.242Z,94.00
2018-10-06T01:49:25.095Z,94.10
2018-10-06T01:51:53.987Z,94.50
2018-10-06T01:54:22.559Z,94.20
2018-10-06T01:56:51.165Z,94.20
2018-10-06T01:59:20.347Z,94.30
2018-10-06T02:01:49.074Z,94.40
2018-10-06T02:04:17.727Z,94.40
2018-10-06T02:06:46.377Z,94.40
2018-10-06T02:09:15.089Z,94.40
2018-10-06T02:11:43.774Z,94.50
2018-10-06T02:14:12.470Z,94.60
2018-10-06T02:16:41.018Z,94.60
2018-10-06T02:19:10.198Z,94.70
2018-10-06T02:21:38.921Z,94.80
2018-10-06T02:24:07.610Z,94.80
2018-10-06T02:26:36.425Z,94.80
2018-10-06T02:29:05.037Z,95.00
2018-10-06T02:31:33.700Z,95.00
2018-10-06T02:34:02.365Z,95.10
2018-10-06T02:36:31.038Z,95.10
2018-10-06T02:38:59.645Z,95.20
2018-10-06T02:41:28.306Z,95.30
2018-10-06T02:43:56.851Z,95.50
2018-10-06T02:46:25.473Z,95.40
2018-10-06T02:48:54.076Z,95.50
2018-10-06T02:51:23.390Z,95.60
2018-10-06T02:53:51.992Z,95.60
2018-10-06T02:56:20.606Z,95.70
2018-10-06T02:58:49.977Z,95.70
2018-10-06T03:01:18.594Z,95.80
2018-10-06T03:03:47.320Z,95.80
2018-10-06T03:06:15.859Z,95.90
2018-10-06T03:08:44.500Z,95.80
2018-10-06T03:11:13.056Z,95.90
2018-10-06T03:13:41.635Z,95.90
2018-10-06T03:16:10.251Z,95.90
2018-10-06T03:18:38.815Z,96.00
2018-10-06T03:21:07.481Z,96.00
2018-10-06T03:23:36.165Z,96.00
2018-10-06T03:26:04.762Z,96.10
2018-10-06T03:28:33.398Z,96.00
2018-10-06T03:31:01.943Z,96.10
2018-10-06T03:33:30.489Z,96.10
2018-10-06T03:35:59.094Z,96.10
2018-10-06T03:38:27.636Z,96.10
2018-10-06T03:40:56.177Z,96.20
2018-10-06T03:43:24.846Z,96.20
2018-10-06T03:45:53.605Z,96.30
2018-10-06T03:48:22.206Z,96.50
2018-10-06T03:50:50.830Z,96.40
2018-10-06T03:53:19.417Z,96.40
2018-10-06T03:55:48.363Z,96.40
2018-10-06T03:58:16.984Z,96.40
2018-10-06T04:00:45.670Z,96.40
2018-10-06T04:03:14.250Z,96.50
2018-10-06T04:05:42.874Z,96.50
2018-10-06T04:08:11.597Z,96.60
2018-10-06T04:10:40.169Z,96.60
2018-10-06T04:13:09.376Z,96.60
2018-10-06T04:15:38.009Z,96.60
2018-10-06T04:18:06.877Z,96.70
2018-10-06T04:20:35.545Z,96.70
2018-10-06T04:23:04.101Z,96.80
2018-10-06T04:25:32.773Z,96.80
2018-10-06T04:28:01.377Z,96.80
2018-10-06T04:30:29.998Z,96.90
2018-10-06T04:32:58.622Z,96.90
2018-10-06T04:35:27.218Z,97.00
2018-10-06T04:37:56.065Z,97.00
2018-10-06T04:40:25.445Z,96.90
2018-10-06T04:42:54.063Z,97.10
2018-10-06T04:45:22.680Z,97.10
2018-10-06T04:47:51.323Z,97.10
2018-10-06T04:50:19.910Z,97.20
2018-10-06T04:52:48.595Z,97.30
2018-10-06T04:55:17.243Z,97.30
2018-10-06T04:57:45.794Z,97.30
2018-10-06T05:00:14.529Z,97.30
2018-10-06T05:02:43.582Z,97.40
2018-10-06T05:05:12.171Z,97.50
2018-10-06T05:07:40.717Z,97.60
2018-10-06T05:10:09.323Z,97.70
2018-10-06T05:12:38.670Z,97.80
2018-10-06T05:15:07.440Z,97.80
2018-10-06T05:17:36.017Z,97.80
2018-10-06T05:20:04.907Z,97.80
2018-10-06T05:22:33.604Z,97.90
2018-10-06T05:25:02.290Z,97.90
2018-10-06T05:27:31.761Z,97.90
2018-10-06T05:30:00.420Z,97.90
2018-10-06T05:32:29.017Z,97.90
2018-10-06T05:34:57.683Z,97.90
2018-10-06T05:37:26.281Z,98.00
2018-10-06T05:39:55.036Z,98.00
2018-10-06T05:42:23.652Z,98.20
2018-10-06T05:44:52.188Z,98.30
2018-10-06T05:47:20.783Z,98.50
2018-10-06T05:49:49.471Z,98.50
2018-10-06T05:52:18.305Z,98.60
2018-10-06T05:54:46.893Z,98.70
2018-10-06T05:57:15.489Z,98.70
2018-10-06T05:59:44.057Z,98.70
2018-10-06T06:02:12.635Z,98.80
2018-10-06T06:04:41.366Z,98.90
2018-10-06T06:07:10.119Z,98.90
2018-10-06T06:09:38.736Z,99.00
2018-10-06T06:12:07.534Z,99.10
2018-10-06T06:14:36.182Z,99.10
2018-10-06T06:17:06.321Z,99.20
2018-10-06T06:19:35.000Z,99.30
2018-10-06T06:22:03.585Z,99.30
2018-10-06T06:24:32.228Z,99.30
2018-10-06T06:27:00.863Z,99.40
2018-10-06T06:29:29.411Z,99.50
2018-10-06T06:31:58.293Z,99.50
2018-10-06T06:34:26.928Z,99.70
2018-10-06T06:36:55.527Z,99.80
2018-10-06T06:39:24.713Z,99.90
2018-10-06T06:41:53.969Z,99.90
2018-10-06T06:44:23.424Z,99.90
2018-10-06T06:46:51.874Z,99.90
2018-10-06T06:49:20.586Z,99.90
2018-10-06T06:51:49.971Z,99.90
2018-10-06T06:54:18.730Z,99.90
2018-10-06T06:56:47.369Z,99.90
2018-10-06T06:59:16.127Z,99.90
2018-10-06T07:01:44.745Z,99.90
2018-10-06T07:04:13.381Z,99.90
2018-10-06T07:06:42.086Z,99.90
2018-10-06T07:09:10.685Z,99.90
2018-10-06T07:11:39.329Z,99.90
2018-10-06T07:14:08.042Z,99.90
2018-10-06T07:16:36.815Z,99.90
2018-10-06T07:19:06.429Z,99.90
2018-10-06T07:21:35.622Z,99.90
2018-10-06T07:24:04.289Z,99.90
2018-10-06T07:26:33.003Z,99.90
2018-10-06T07:29:03.521Z,99.90
2018-10-06T07:31:32.188Z,99.90
2018-10-06T07:34:00.802Z,99.70
2018-10-06T07:36:29.484Z,99.60
2018-10-06T07:38:58.473Z,99.70
2018-10-06T07:41:27.047Z,99.90
2018-10-06T07:43:55.785Z,99.90
2018-10-06T07:46:24.495Z,99.90
2018-10-06T07:48:53.121Z,99.90
2018-10-06T07:51:21.686Z,99.90
2018-10-06T07:53:50.263Z,99.90
2018-10-06T07:56:18.960Z,99.90
2018-10-06T07:58:47.609Z,99.90
2018-10-06T08:01:16.229Z,99.90
2018-10-06T08:03:44.817Z,99.90
2018-10-06T08:06:13.475Z,99.90
2018-10-06T08:08:42.041Z,99.90
2018-10-06T08:11:10.708Z,99.90
2018-10-06T08:13:39.367Z,99.90
2018-10-06T08:16:08.370Z,99.90
2018-10-06T08:18:36.963Z,99.90
2018-10-06T08:21:05.566Z,99.90
2018-10-06T08:23:34.194Z,99.90
2018-10-06T08:26:02.875Z,99.90
2018-10-06T08:28:31.500Z,99.90
2018-10-06T08:31:00.143Z,99.90
2018-10-06T08:33:28.725Z,99.90
2018-10-06T08:35:57.305Z,99.90
2018-10-06T08:38:25.849Z,99.90
2018-10-06T08:40:54.450Z,99.90
2018-10-06T08:43:23.222Z,99.90
2018-10-06T08:45:51.929Z,99.90
2018-10-06T08:48:20.524Z,99.90
2018-10-06T08:50:49.125Z,99.90
2018-10-06T08:53:17.755Z,99.90
2018-10-06T08:55:46.391Z,99.90
2018-10-06T08:58:15.016Z,99.90
2018-10-06T09:00:43.614Z,99.90
2018-10-06T09:03:12.493Z,99.90
2018-10-06T09:05:41.090Z,99.90
2018-10-06T09:08:09.718Z,99.90
2018-10-06T09:10:38.405Z,99.90
2018-10-06T09:13:07.762Z,99.90
2018-10-06T09:15:36.373Z,99.90
2018-10-06T09:18:05.079Z,99.90
2018-10-06T09:20:33.771Z,99.90
2018-10-06T09:23:02.379Z,99.90
2018-10-06T09:25:31.140Z,99.90
2018-10-06T09:27:59.912Z,99.90
2018-10-06T09:30:28.593Z,99.90
2018-10-06T09:32:57.240Z,99.90
2018-10-06T09:35:25.861Z,99.90
2018-10-06T09:37:54.534Z,99.90
2018-10-06T09:40:23.281Z,99.90
2018-10-06T09:42:52.035Z,99.90
2018-10-06T09:45:20.793Z,99.90
2018-10-06T09:47:49.532Z,99.90
2018-10-06T09:50:18.132Z,99.90
2018-10-06T09:52:47.499Z,99.90
2018-10-06T09:55:16.066Z,99.90
2018-10-06T09:57:44.865Z,99.90
2018-10-06T10:00:13.490Z,99.90
2018-10-06T10:02:47.341Z,99.90
2018-10-06T10:05:21.360Z,99.90
2018-10-06T10:07:49.943Z,99.90
2018-10-06T10:10:18.538Z,99.90
2018-10-06T10:12:47.291Z,99.90
2018-10-06T10:15:15.910Z,99.90
2018-10-06T10:17:44.757Z,99.90
2018-10-06T10:20:13.280Z,99.90
2018-10-06T10:22:42.567Z,99.90
2018-10-06T10:25:11.190Z,99.70
2018-10-06T10:27:39.827Z,96.60
2018-10-06T10:30:08.483Z,96.00
2018-10-06T10:32:37.171Z,96.00
2018-10-06T10:35:05.983Z,96.20
2018-10-06T10:37:34.724Z,96.60
2018-10-06T10:40:03.439Z,96.40
2018-10-06T10:42:32.181Z,96.50
2018-10-06T10:45:00.877Z,98.00
2018-10-06T10:47:29.543Z,97.30
2018-10-06T10:49:58.195Z,96.90
2018-10-06T10:52:27.248Z,97.00
2018-10-06T10:54:55.809Z,97.00
2018-10-06T10:57:24.510Z,97.20
2018-10-06T10:59:53.950Z,97.90
2018-10-06T11:02:22.379Z,98.00
2018-10-06T11:04:51.087Z,97.00
2018-10-06T11:07:19.752Z,96.80
2018-10-06T11:09:48.471Z,96.40
2018-10-06T11:12:17.091Z,96.70
2018-10-06T11:14:45.855Z,96.60
2018-10-06T11:17:14.528Z,96.40
2018-10-06T11:19:43.143Z,96.20
2018-10-06T11:22:12.007Z,96.10
2018-10-06T11:24:40.826Z,96.20
2018-10-06T11:27:09.500Z,95.90
2018-10-06T11:29:38.884Z,95.70
2018-10-06T11:32:07.625Z,95.80
2018-10-06T11:34:37.092Z,95.90
2018-10-06T11:37:05.752Z,95.30
2018-10-06T11:39:34.488Z,95.30
2018-10-06T11:42:03.127Z,95.50
2018-10-06T11:44:31.710Z,95.50
2018-10-06T11:47:00.313Z,96.80
2018-10-06T11:49:29.503Z,99.90
2018-10-06T11:51:58.028Z,99.90
2018-10-06T11:54:26.610Z,99.90
2018-10-06T11:56:55.199Z,97.90
2018-10-06T11:59:23.755Z,98.20
2018-10-06T12:01:52.275Z,97.70
2018-10-06T12:04:20.905Z,99.90
2018-10-06T12:06:49.668Z,99.90
2018-10-06T12:09:18.279Z,99.90
2018-10-06T12:11:46.894Z,97.90
2018-10-06T12:14:15.480Z,95.10
2018-10-06T12:16:44.025Z,91.80
2018-10-06T12:19:12.609Z,89.10
2018-10-06T12:21:41.163Z,84.20
2018-10-06T12:24:09.799Z,81.70
2018-10-06T12:26:38.395Z,81.60
2018-10-06T12:29:06.941Z,79.40
2018-10-06T12:31:35.526Z,74.20
2018-10-06T12:34:04.104Z,73.00
2018-10-06T12:36:32.749Z,70.60
2018-10-06T12:39:01.355Z,68.20
2018-10-06T12:41:30.535Z,67.00
2018-10-06T12:43:59.684Z,64.20
2018-10-06T12:46:28.340Z,62.20
2018-10-06T12:48:56.906Z,63.20
2018-10-06T12:51:25.485Z,60.30
2018-10-06T12:53:54.112Z,59.90
2018-10-06T12:56:22.686Z,57.90
2018-10-06T12:58:51.391Z,59.20
2018-10-06T13:01:20.010Z,58.10
2018-10-06T13:03:48.741Z,55.20
2018-10-06T13:06:17.404Z,56.80
2018-10-06T13:08:45.925Z,57.70
2018-10-06T13:11:14.492Z,57.10
2018-10-06T13:13:43.129Z,55.80
2018-10-06T13:16:11.854Z,53.60
2018-10-06T13:18:40.547Z,54.20
2018-10-06T13:21:09.155Z,53.70
2018-10-06T13:23:37.770Z,52.30
2018-10-06T13:26:06.375Z,52.00
2018-10-06T13:28:34.974Z,49.80
2018-10-06T13:31:03.833Z,48.70
2018-10-06T13:33:32.533Z,49.30
2018-10-06T13:36:01.329Z,52.10
2018-10-06T13:38:29.910Z,53.00
2018-10-06T13:40:58.494Z,52.40
2018-10-06T13:43:27.140Z,51.50
2018-10-06T13:45:55.880Z,51.20
2018-10-06T13:48:24.421Z,50.30
2018-10-06T13:50:53.089Z,50.60
2018-10-06T13:53:22.514Z,49.50
2018-10-06T13:55:51.133Z,48.90
2018-10-06T13:58:19.832Z,48.70
2018-10-06T14:00:48.526Z,47.80
2018-10-06T14:03:17.141Z,45.30
2018-10-06T14:05:45.829Z,44.60
2018-10-06T14:08:14.503Z,46.00
2018-10-06T14:10:43.207Z,48.20
2018-10-06T14:13:11.826Z,48.70
2018-10-06T14:15:40.889Z,48.90
2018-10-06T14:18:09.530Z,48.50
2018-10-06T14:20:38.200Z,47.90
2018-10-06T14:23:06.913Z,46.40
2018-10-06T14:25:35.599Z,47.20
2018-10-06T14:28:04.216Z,46.20
2018-10-06T14:30:32.892Z,45.70
2018-10-06T14:33:01.654Z,46.00
2018-10-06T14:35:30.276Z,47.00
2018-10-06T14:37:58.886Z,46.80
2018-10-06T14:40:27.545Z,47.50
2018-10-06T14:42:56.207Z,48.00
2018-10-06T14:45:24.880Z,48.30
2018-10-06T14:47:53.540Z,49.10
2018-10-06T14:50:22.225Z,49.40
2018-10-06T14:52:50.971Z,49.70
2018-10-06T14:55:20.273Z,49.90
2018-10-06T14:57:48.936Z,50.00
2018-10-06T15:00:17.572Z,50.20
2018-10-06T15:02:46.160Z,50.70
2018-10-06T15:05:14.963Z,51.00
2018-10-06T15:07:43.566Z,51.40
2018-10-06T15:10:12.315Z,51.60
2018-10-06T15:12:40.872Z,51.80
2018-10-06T15:15:09.477Z,52.40
2018-10-06T15:17:38.191Z,52.50
2018-10-06T15:20:06.829Z,52.90
2018-10-06T15:22:35.590Z,53.10
2018-10-06T15:25:04.190Z,53.70
2018-10-06T15:27:32.764Z,54.10
2018-10-06T15:30:01.395Z,54.30
2018-10-06T15:32:30.045Z,54.30
2018-10-06T15:34:58.742Z,54.50
2018-10-06T15:37:27.412Z,54.70
2018-10-06T15:39:56.107Z,55.00
2018-10-06T15:42:24.716Z,55.60
2018-10-06T15:44:53.390Z,55.70
2018-10-06T15:47:22.007Z,56.00
2018-10-06T15:49:50.649Z,56.50
2018-10-06T15:52:19.427Z,56.90
2018-10-06T15:54:48.002Z,57.30
2018-10-06T15:57:16.831Z,57.50
2018-10-06T15:59:45.513Z,58.00
2018-10-06T16:02:14.062Z,58.40
2018-10-06T16:04:42.617Z,58.70
2018-10-06T16:07:11.921Z,59.20
2018-10-06T16:09:40.615Z,59.70
2018-10-06T16:12:09.299Z,60.00
2018-10-06T16:14:38.041Z,60.30
2018-10-06T16:17:06.659Z,60.90
2018-10-06T16:19:35.347Z,61.00
2018-10-06T16:22:03.961Z,61.40
2018-10-06T16:24:32.561Z,61.70
2018-10-06T16:27:01.309Z,62.00
2018-10-06T16:29:29.965Z,62.30
2018-10-06T16:31:58.926Z,62.30
2018-10-06T16:34:27.556Z,62.80
2018-10-06T16:36:56.752Z,63.20
2018-10-06T16:39:25.438Z,63.30
2018-10-06T16:41:54.233Z,63.70
2018-10-06T16:44:23.187Z,64.60
2018-10-06T16:46:51.949Z,64.20
2018-10-06T16:49:20.675Z,64.90
2018-10-06T16:51:49.473Z,65.00
2018-10-06T16:54:18.230Z,66.30
2018-10-06T16:56:46.934Z,65.30
2018-10-06T16:59:15.693Z,65.60
2018-10-06T17:01:44.466Z,65.70
2018-10-06T17:04:13.755Z,65.60
2018-10-06T17:06:42.567Z,66.00
2018-10-06T17:09:11.875Z,66.50
2018-10-06T17:11:40.587Z,66.80
2018-10-06T17:14:09.787Z,67.20
2018-10-06T17:16:38.471Z,67.40
2018-10-06T17:19:07.218Z,67.80
2018-10-06T17:21:36.055Z,68.00
2018-10-06T17:24:04.734Z,68.10
2018-10-06T17:26:33.327Z,68.50
2018-10-06T17:29:01.949Z,68.80
2018-10-06T17:31:30.597Z,68.90
2018-10-06T17:33:59.388Z,69.40
2018-10-06T17:36:28.158Z,69.60
2018-10-06T17:38:57.103Z,70.10
2018-10-06T17:41:25.875Z,70.70
2018-10-06T17:43:54.974Z,70.70
2018-10-06T17:46:23.966Z,70.90
2018-10-06T17:48:53.319Z,71.40
2018-10-06T17:51:22.129Z,71.50
2018-10-06T17:53:50.792Z,71.90
2018-10-06T17:56:20.242Z,72.30
2018-10-06T17:58:48.912Z,72.70
2018-10-06T18:01:17.615Z,73.20
2018-10-06T18:03:46.307Z,74.10
2018-10-06T18:06:15.118Z,74.10
2018-10-06T18:08:43.796Z,74.60
2018-10-06T18:11:12.415Z,75.00
2018-10-06T18:13:41.247Z,75.30
2018-10-06T18:16:09.994Z,75.90
2018-10-06T18:18:38.823Z,76.50
2018-10-06T18:21:07.596Z,77.20
2018-10-06T18:23:36.472Z,77.50
2018-10-06T18:26:05.318Z,78.00
2018-10-06T18:28:33.951Z,78.50
2018-10-06T18:31:03.056Z,79.10
2018-10-06T18:33:31.900Z,79.60
2018-10-06T18:36:00.805Z,79.80
2018-10-06T18:38:29.594Z,80.10
2018-10-06T18:40:58.236Z,80.70
2018-10-06T18:43:27.068Z,81.20
2018-10-06T18:45:55.755Z,81.60
2018-10-06T18:48:24.506Z,82.10
2018-10-06T18:50:53.134Z,82.30
2018-10-06T18:53:21.816Z,82.60
2018-10-06T18:55:50.642Z,83.00
2018-10-06T18:58:19.347Z,83.90
2018-10-06T19:00:48.000Z,84.10
2018-10-06T19:03:16.727Z,84.50
2018-10-06T19:05:45.362Z,85.10
2018-10-06T19:08:14.008Z,85.40
2018-10-06T19:10:42.749Z,85.60
2018-10-06T19:13:11.390Z,86.00
2018-10-06T19:15:40.216Z,86.50
2018-10-06T19:18:08.879Z,86.90
2018-10-06T19:20:37.505Z,87.20
2018-10-06T19:23:06.192Z,87.50
2018-10-06T19:25:34.813Z,88.10
2018-10-06T19:28:03.653Z,88.40
2018-10-06T19:30:32.388Z,88.70
2018-10-06T19:33:01.130Z,89.20
2018-10-06T19:35:30.437Z,89.70
2018-10-06T19:37:59.182Z,89.90
2018-10-06T19:40:27.817Z,90.00
2018-10-06T19:42:56.645Z,90.20
2018-10-06T19:45:25.273Z,90.40
2018-10-06T19:47:54.545Z,90.60
2018-10-06T19:50:23.227Z,90.70
2018-10-06T19:52:51.942Z,90.90
2018-10-06T19:55:20.575Z,91.20
2018-10-06T19:57:49.274Z,91.40
2018-10-06T20:00:18.100Z,91.70
2018-10-06T20:02:47.017Z,91.90
2018-10-06T20:05:15.714Z,92.00
2018-10-06T20:07:44.436Z,92.10
2018-10-06T20:10:13.595Z,92.30
2018-10-06T20:12:42.384Z,92.40
2018-10-06T20:15:11.173Z,92.60
2018-10-06T20:17:39.813Z,92.60
2018-10-06T20:20:08.503Z,92.80
2018-10-06T20:22:37.282Z,92.90
2018-10-06T20:25:06.191Z,92.90
2018-10-06T20:27:34.841Z,93.00
2018-10-06T20:30:03.495Z,93.10
2018-10-06T20:32:33.798Z,93.30
2018-10-06T20:35:02.833Z,93.30
2018-10-06T20:37:31.434Z,93.50
2018-10-06T20:40:00.119Z,93.60
2018-10-06T20:42:28.780Z,93.70
2018-10-06T20:44:57.358Z,93.90
2018-10-06T20:47:26.017Z,93.90
2018-10-06T20:49:54.619Z,94.10
2018-10-06T20:52:23.519Z,94.30
2018-10-06T20:54:52.157Z,94.40
2018-10-06T20:57:20.723Z,94.40
2018-10-06T20:59:49.402Z,94.50
2018-10-06T21:02:18.053Z,94.50
2018-10-06T21:04:46.750Z,94.70
2018-10-06T21:07:15.372Z,94.80
2018-10-06T21:09:43.991Z,94.90
2018-10-06T21:12:12.607Z,95.00
2018-10-06T21:14:41.222Z,95.10
2018-10-06T21:17:10.026Z,95.30
2018-10-06T21:19:41.532Z,95.20
2018-10-06T21:22:10.235Z,95.40
2018-10-06T21:24:38.908Z,95.30
2018-10-06T21:27:07.597Z,95.80
2018-10-06T21:29:36.372Z,95.70
2018-10-06T21:32:04.851Z,95.60
2018-10-06T21:34:33.555Z,95.70
2018-10-06T21:37:02.167Z,95.50
2018-10-06T21:39:37.677Z,95.60
2018-10-06T21:42:06.246Z,96.00
2018-10-06T21:44:35.702Z,95.80
2018-10-06T21:47:05.281Z,95.80
2018-10-06T21:49:34.821Z,95.80
2018-10-06T21:52:03.434Z,96.30
2018-10-06T21:54:32.043Z,96.40
2018-10-06T21:57:00.606Z,96.40
2018-10-06T21:59:29.161Z,95.70
2018-10-06T22:01:57.767Z,95.60
2018-10-06T22:04:26.342Z,95.70
2018-10-06T22:06:55.001Z,95.60
2018-10-06T22:09:23.769Z,95.80
2018-10-06T22:11:52.631Z,96.00
2018-10-06T22:14:21.299Z,95.90
2018-10-06T22:16:49.921Z,96.20
2018-10-06T22:19:18.474Z,96.10
2018-10-06T22:21:47.257Z,96.10
2018-10-06T22:24:15.810Z,96.10
2018-10-06T22:26:44.403Z,96.10
2018-10-06T22:29:12.999Z,96.40
2018-10-06T22:31:41.545Z,96.10
2018-10-06T22:34:10.207Z,96.20
2018-10-06T22:36:38.785Z,96.20
2018-10-06T22:39:08.768Z,96.60
2018-10-06T22:41:37.675Z,96.50
2018-10-06T22:44:06.283Z,96.60
2018-10-06T22:46:35.005Z,96.50
2018-10-06T22:49:04.173Z,96.30
2018-10-06T22:51:32.778Z,96.80
2018-10-06T22:54:01.390Z,96.60
2018-10-06T22:56:29.984Z,96.60
2018-10-06T22:58:58.709Z,96.60
2018-10-06T23:01:27.338Z,96.50
2018-10-06T23:03:55.931Z,96.50
2018-10-06T23:06:24.540Z,96.60
2018-10-06T23:08:53.272Z,96.60
2018-10-06T23:11:21.846Z,96.50
2018-10-06T23:13:50.402Z,96.70
2018-10-06T23:16:19.017Z,96.70
2018-10-06T23:18:47.591Z,97.00
2018-10-06T23:21:16.221Z,97.00
2018-10-06T23:23:44.797Z,97.20
2018-10-06T23:26:13.484Z,97.00
2018-10-06T23:28:42.019Z,96.90
2018-10-06T23:31:10.723Z,96.70
2018-10-06T23:33:40.087Z,96.70
2018-10-06T23:36:08.716Z,96.70
2018-10-06T23:38:37.400Z,96.70
2018-10-06T23:41:06.142Z,96.60
2018-10-06T23:43:34.753Z,96.70
2018-10-06T23:46:03.329Z,96.60
2018-10-06T23:48:31.909Z,96.80
2018-10-06T23:51:00.458Z,97.00
2018-10-06T23:53:29.053Z,96.70
2018-10-06T23:55:57.627Z,96.70
2018-10-06T23:58:26.245Z,96.50
